sensor_id;sensor_type;location;lat;lon;timestamp;temperature;humidity
8832;DHT22;4452;50.756;4.472;2022-09-12T00:00:32;13.90;99.90
8832;DHT22;4452;50.756;4.472;2022-09-12T00:02:58;13.80;99.90
8832;DHT22;4452;50.756;4.472;2022-09-12T00:05:25;13.80;99.90
8832;DHT22;4452;50.756;4.472;2022-09-12T00:07:50;14.00;99.90
8832;DHT22;4452;50.756;4.472;2022-09-12T00:10:17;14.00;99.90
8832;DHT22;4452;50.756;4.472;2022-09-12T00:12:42;13.90;99.90
8832;DHT22;4452;50.756;4.472;2022-09-12T00:15:08;13.80;99.90
8832;DHT22;4452;50.756;4.472;2022-09-12T00:17:36;13.70;99.90
8832;DHT22;4452;50.756;4.472;2022-09-12T00:20:04;13.70;99.90
8832;DHT22;4452;50.756;4.472;2022-09-12T00:22:31;13.60;99.90
8832;DHT22;4452;50.756;4.472;2022-09-12T00:24:56;13.60;99.90
8832;DHT22;4452;50.756;4.472;2022-09-12T00:27:22;13.60;99.90
8832;DHT22;4452;50.756;4.472;2022-09-12T00:29:47;13.50;99.90
8832;DHT22;4452;50.756;4.472;2022-09-12T00:32:13;13.50;99.90
8832;DHT22;4452;50.756;4.472;2022-09-12T00:34:39;13.60;99.90
8832;DHT22;4452;50.756;4.472;2022-09-12T00:37:04;13.70;99.90
8832;DHT22;4452;50.756;4.472;2022-09-12T00:39:30;13.70;99.90
8832;DHT22;4452;50.756;4.472;2022-09-12T00:41:56;13.60;99.90
8832;DHT22;4452;50.756;4.472;2022-09-12T00:50:12;13.50;99.90
8832;DHT22;4452;50.756;4.472;2022-09-12T00:52:51;13.60;99.90
8832;DHT22;4452;50.756;4.472;2022-09-12T00:55:23;13.50;99.90
8832;DHT22;4452;50.756;4.472;2022-09-12T00:57:57;13.50;99.90
8832;DHT22;4452;50.756;4.472;2022-09-12T01:00:26;13.50;99.90
8832;DHT22;4452;50.756;4.472;2022-09-12T01:02:58;13.60;99.90
8832;DHT22;4452;50.756;4.472;2022-09-12T01:05:25;13.60;99.90
8832;DHT22;4452;50.756;4.472;2022-09-12T01:07:52;13.50;99.90
8832;DHT22;4452;50.756;4.472;2022-09-12T01:10:19;13.40;99.90
8832;DHT22;4452;50.756;4.472;2022-09-12T01:12:45;13.40;99.90
8832;DHT22;4452;50.756;4.472;2022-09-12T01:15:12;13.40;99.90
8832;DHT22;4452;50.756;4.472;2022-09-12T01:20:39;13.40;99.90
8832;DHT22;4452;50.756;4.472;2022-09-12T01:34:19;13.50;99.90
8832;DHT22;4452;50.756;4.472;2022-09-12T01:36:57;13.30;99.90
8832;DHT22;4452;50.756;4.472;2022-09-12T01:39:49;13.40;99.90
8832;DHT22;4452;50.756;4.472;2022-09-12T01:55:35;13.40;99.90
8832;DHT22;4452;50.756;4.472;2022-09-12T02:03:46;13.30;99.90
8832;DHT22;4452;50.756;4.472;2022-09-12T02:06:19;13.20;99.90
8832;DHT22;4452;50.756;4.472;2022-09-12T02:09:11;13.20;99.90
8832;DHT22;4452;50.756;4.472;2022-09-12T02:11:39;13.20;99.90
8832;DHT22;4452;50.756;4.472;2022-09-12T02:14:10;13.30;99.90
8832;DHT22;4452;50.756;4.472;2022-09-12T02:16:44;13.30;99.90
8832;DHT22;4452;50.756;4.472;2022-09-12T02:19:23;13.30;99.90
8832;DHT22;4452;50.756;4.472;2022-09-12T02:21:55;13.20;99.90
8832;DHT22;4452;50.756;4.472;2022-09-12T02:24:32;13.00;99.90
8832;DHT22;4452;50.756;4.472;2022-09-12T02:27:09;13.00;99.90
8832;DHT22;4452;50.756;4.472;2022-09-12T02:29:38;13.10;99.90
8832;DHT22;4452;50.756;4.472;2022-09-12T02:32:05;13.10;99.90
8832;DHT22;4452;50.756;4.472;2022-09-12T02:34:50;13.10;99.90
8832;DHT22;4452;50.756;4.472;2022-09-12T02:37:20;13.10;99.90
8832;DHT22;4452;50.756;4.472;2022-09-12T02:39:51;13.10;99.90
8832;DHT22;4452;50.756;4.472;2022-09-12T02:42:19;13.10;99.90
8832;DHT22;4452;50.756;4.472;2022-09-12T02:44:45;13.10;99.90
8832;DHT22;4452;50.756;4.472;2022-09-12T02:47:19;13.10;99.90
8832;DHT22;4452;50.756;4.472;2022-09-12T02:49:47;13.10;99.90
8832;DHT22;4452;50.756;4.472;2022-09-12T02:52:13;13.10;99.90
8832;DHT22;4452;50.756;4.472;2022-09-12T02:54:39;13.10;99.90
8832;DHT22;4452;50.756;4.472;2022-09-12T02:57:15;13.10;99.90
8832;DHT22;4452;50.756;4.472;2022-09-12T02:59:41;13.00;99.90
8832;DHT22;4452;50.756;4.472;2022-09-12T03:02:44;12.90;99.90
8832;DHT22;4452;50.756;4.472;2022-09-12T03:05:21;13.00;99.90
8832;DHT22;4452;50.756;4.472;2022-09-12T03:13:22;12.70;99.90
8832;DHT22;4452;50.756;4.472;2022-09-12T03:16:09;12.70;99.90
8832;DHT22;4452;50.756;4.472;2022-09-12T03:18:55;12.80;99.90
8832;DHT22;4452;50.756;4.472;2022-09-12T03:21:32;12.80;99.90
8832;DHT22;4452;50.756;4.472;2022-09-12T03:24:18;12.80;99.90
8832;DHT22;4452;50.756;4.472;2022-09-12T03:26:55;12.70;99.90
8832;DHT22;4452;50.756;4.472;2022-09-12T03:29:24;12.70;99.90
8832;DHT22;4452;50.756;4.472;2022-09-12T03:31:56;12.70;99.90
8832;DHT22;4452;50.756;4.472;2022-09-12T03:34:23;12.60;99.90
8832;DHT22;4452;50.756;4.472;2022-09-12T03:36:49;12.60;99.90
8832;DHT22;4452;50.756;4.472;2022-09-12T03:39:15;12.60;99.90
8832;DHT22;4452;50.756;4.472;2022-09-12T03:41:41;12.60;99.90
8832;DHT22;4452;50.756;4.472;2022-09-12T03:44:08;12.60;99.90
8832;DHT22;4452;50.756;4.472;2022-09-12T03:46:34;12.50;99.90
8832;DHT22;4452;50.756;4.472;2022-09-12T03:48:59;12.50;99.90
8832;DHT22;4452;50.756;4.472;2022-09-12T03:51:25;12.50;99.90
8832;DHT22;4452;50.756;4.472;2022-09-12T03:53:51;12.50;99.90
8832;DHT22;4452;50.756;4.472;2022-09-12T03:56:16;12.50;99.90
8832;DHT22;4452;50.756;4.472;2022-09-12T03:58:44;12.50;99.90
8832;DHT22;4452;50.756;4.472;2022-09-12T04:01:15;12.50;99.90
8832;DHT22;4452;50.756;4.472;2022-09-12T04:03:43;12.40;99.90
8832;DHT22;4452;50.756;4.472;2022-09-12T04:06:10;12.40;99.90
8832;DHT22;4452;50.756;4.472;2022-09-12T04:08:37;12.30;99.90
8832;DHT22;4452;50.756;4.472;2022-09-12T04:11:08;12.40;99.90
8832;DHT22;4452;50.756;4.472;2022-09-12T04:13:35;12.30;99.90
8832;DHT22;4452;50.756;4.472;2022-09-12T04:16:01;12.30;99.90
8832;DHT22;4452;50.756;4.472;2022-09-12T04:18:27;12.20;99.90
8832;DHT22;4452;50.756;4.472;2022-09-12T04:20:53;12.20;99.90
8832;DHT22;4452;50.756;4.472;2022-09-12T04:23:19;12.20;99.90
8832;DHT22;4452;50.756;4.472;2022-09-12T04:25:55;12.20;99.90
8832;DHT22;4452;50.756;4.472;2022-09-12T04:28:21;12.20;99.90
8832;DHT22;4452;50.756;4.472;2022-09-12T04:30:47;12.20;99.90
8832;DHT22;4452;50.756;4.472;2022-09-12T04:33:13;12.20;99.90
8832;DHT22;4452;50.756;4.472;2022-09-12T04:35:39;12.20;99.90
8832;DHT22;4452;50.756;4.472;2022-09-12T04:38:06;12.20;99.90
8832;DHT22;4452;50.756;4.472;2022-09-12T04:40:32;12.20;99.90
8832;DHT22;4452;50.756;4.472;2022-09-12T04:42:58;12.30;99.90
8832;DHT22;4452;50.756;4.472;2022-09-12T04:45:23;12.30;99.90
8832;DHT22;4452;50.756;4.472;2022-09-12T04:47:49;12.40;99.90
8832;DHT22;4452;50.756;4.472;2022-09-12T04:50:15;12.40;99.90
8832;DHT22;4452;50.756;4.472;2022-09-12T04:52:41;12.40;99.90
8832;DHT22;4452;50.756;4.472;2022-09-12T04:55:07;12.50;99.90
8832;DHT22;4452;50.756;4.472;2022-09-12T04:57:34;12.40;99.90
8832;DHT22;4452;50.756;4.472;2022-09-12T05:00:00;12.40;99.90
8832;DHT22;4452;50.756;4.472;2022-09-12T05:02:26;12.30;99.90
8832;DHT22;4452;50.756;4.472;2022-09-12T05:04:51;12.30;99.90
8832;DHT22;4452;50.756;4.472;2022-09-12T05:07:18;12.40;99.90
8832;DHT22;4452;50.756;4.472;2022-09-12T05:09:44;12.40;99.90
8832;DHT22;4452;50.756;4.472;2022-09-12T05:12:10;12.40;99.90
8832;DHT22;4452;50.756;4.472;2022-09-12T05:14:35;12.40;99.90
8832;DHT22;4452;50.756;4.472;2022-09-12T05:17:02;12.40;99.90
8832;DHT22;4452;50.756;4.472;2022-09-12T05:19:28;12.30;99.90
8832;DHT22;4452;50.756;4.472;2022-09-12T05:21:55;12.40;99.90
8832;DHT22;4452;50.756;4.472;2022-09-12T05:24:20;12.40;99.90
8832;DHT22;4452;50.756;4.472;2022-09-12T05:26:46;12.40;99.90
8832;DHT22;4452;50.756;4.472;2022-09-12T05:29:12;12.40;99.90
8832;DHT22;4452;50.756;4.472;2022-09-12T05:31:37;12.40;99.90
8832;DHT22;4452;50.756;4.472;2022-09-12T05:34:03;12.50;99.90
8832;DHT22;4452;50.756;4.472;2022-09-12T05:36:31;12.50;99.90
8832;DHT22;4452;50.756;4.472;2022-09-12T05:38:58;12.50;99.90
8832;DHT22;4452;50.756;4.472;2022-09-12T05:41:27;12.50;99.90
8832;DHT22;4452;50.756;4.472;2022-09-12T05:43:59;12.50;99.90
8832;DHT22;4452;50.756;4.472;2022-09-12T05:46:27;12.50;99.90
8832;DHT22;4452;50.756;4.472;2022-09-12T05:48:53;12.60;99.90
8832;DHT22;4452;50.756;4.472;2022-09-12T05:51:25;12.60;99.90
8832;DHT22;4452;50.756;4.472;2022-09-12T05:53:54;12.60;99.90
8832;DHT22;4452;50.756;4.472;2022-09-12T05:56:22;12.70;99.90
8832;DHT22;4452;50.756;4.472;2022-09-12T05:58:53;12.60;99.90
8832;DHT22;4452;50.756;4.472;2022-09-12T06:01:19;12.70;99.90
8832;DHT22;4452;50.756;4.472;2022-09-12T06:03:47;12.70;99.90
8832;DHT22;4452;50.756;4.472;2022-09-12T06:06:15;12.70;99.90
8832;DHT22;4452;50.756;4.472;2022-09-12T06:08:42;12.80;99.90
8832;DHT22;4452;50.756;4.472;2022-09-12T06:11:11;12.80;99.90
8832;DHT22;4452;50.756;4.472;2022-09-12T06:13:38;12.90;99.90
8832;DHT22;4452;50.756;4.472;2022-09-12T06:16:06;12.90;99.90
8832;DHT22;4452;50.756;4.472;2022-09-12T06:18:37;13.00;99.90
8832;DHT22;4452;50.756;4.472;2022-09-12T06:21:07;13.00;99.90
8832;DHT22;4452;50.756;4.472;2022-09-12T06:23:33;13.20;99.90
8832;DHT22;4452;50.756;4.472;2022-09-12T06:25:59;13.30;99.90
8832;DHT22;4452;50.756;4.472;2022-09-12T06:28:25;13.40;99.90
8832;DHT22;4452;50.756;4.472;2022-09-12T06:30:52;13.50;99.90
8832;DHT22;4452;50.756;4.472;2022-09-12T06:33:18;13.60;99.90
8832;DHT22;4452;50.756;4.472;2022-09-12T06:35:44;13.70;99.90
8832;DHT22;4452;50.756;4.472;2022-09-12T06:38:09;13.80;99.90
8832;DHT22;4452;50.756;4.472;2022-09-12T06:40:44;13.90;99.90
8832;DHT22;4452;50.756;4.472;2022-09-12T06:43:13;13.90;99.90
8832;DHT22;4452;50.756;4.472;2022-09-12T06:45:46;14.10;99.90
8832;DHT22;4452;50.756;4.472;2022-09-12T06:48:12;14.20;99.90
8832;DHT22;4452;50.756;4.472;2022-09-12T06:50:38;14.30;99.90
8832;DHT22;4452;50.756;4.472;2022-09-12T06:53:03;14.40;99.90
8832;DHT22;4452;50.756;4.472;2022-09-12T06:55:29;14.50;99.90
8832;DHT22;4452;50.756;4.472;2022-09-12T06:57:54;14.40;99.90
8832;DHT22;4452;50.756;4.472;2022-09-12T07:00:20;14.40;99.90
8832;DHT22;4452;50.756;4.472;2022-09-12T07:02:46;14.60;99.90
8832;DHT22;4452;50.756;4.472;2022-09-12T07:05:11;14.70;99.90
8832;DHT22;4452;50.756;4.472;2022-09-12T07:07:38;14.80;99.90
8832;DHT22;4452;50.756;4.472;2022-09-12T07:10:04;14.90;99.90
8832;DHT22;4452;50.756;4.472;2022-09-12T07:12:31;15.10;99.90
8832;DHT22;4452;50.756;4.472;2022-09-12T07:14:56;15.20;99.90
8832;DHT22;4452;50.756;4.472;2022-09-12T07:17:22;15.30;99.90
8832;DHT22;4452;50.756;4.472;2022-09-12T07:19:48;15.20;99.90
8832;DHT22;4452;50.756;4.472;2022-09-12T07:22:13;15.30;99.90
8832;DHT22;4452;50.756;4.472;2022-09-12T07:24:39;15.30;99.90
8832;DHT22;4452;50.756;4.472;2022-09-12T07:27:05;15.50;99.90
8832;DHT22;4452;50.756;4.472;2022-09-12T07:29:31;15.60;99.90
8832;DHT22;4452;50.756;4.472;2022-09-12T07:31:57;15.70;99.90
8832;DHT22;4452;50.756;4.472;2022-09-12T07:34:23;15.90;99.90
8832;DHT22;4452;50.756;4.472;2022-09-12T07:36:48;16.20;99.90
8832;DHT22;4452;50.756;4.472;2022-09-12T07:39:14;16.40;99.90
8832;DHT22;4452;50.756;4.472;2022-09-12T07:41:40;16.50;99.90
8832;DHT22;4452;50.756;4.472;2022-09-12T07:44:06;16.60;99.90
8832;DHT22;4452;50.756;4.472;2022-09-12T07:46:31;16.70;99.90
8832;DHT22;4452;50.756;4.472;2022-09-12T07:48:59;16.70;99.90
8832;DHT22;4452;50.756;4.472;2022-09-12T07:51:26;16.90;99.90
8832;DHT22;4452;50.756;4.472;2022-09-12T07:53:52;17.10;99.90
8832;DHT22;4452;50.756;4.472;2022-09-12T07:56:18;17.30;99.90
8832;DHT22;4452;50.756;4.472;2022-09-12T07:58:44;17.60;99.90
8832;DHT22;4452;50.756;4.472;2022-09-12T08:01:13;17.70;99.90
8832;DHT22;4452;50.756;4.472;2022-09-12T08:03:44;17.80;99.90
8832;DHT22;4452;50.756;4.472;2022-09-12T08:06:18;17.90;99.90
8832;DHT22;4452;50.756;4.472;2022-09-12T08:08:47;18.00;99.90
8832;DHT22;4452;50.756;4.472;2022-09-12T08:11:17;18.10;99.90
8832;DHT22;4452;50.756;4.472;2022-09-12T08:13:44;18.30;99.90
8832;DHT22;4452;50.756;4.472;2022-09-12T08:16:15;18.20;99.90
8832;DHT22;4452;50.756;4.472;2022-09-12T08:18:42;18.40;99.90
8832;DHT22;4452;50.756;4.472;2022-09-12T08:21:28;18.40;99.90
8832;DHT22;4452;50.756;4.472;2022-09-12T08:23:59;18.40;99.90
8832;DHT22;4452;50.756;4.472;2022-09-12T08:26:25;18.40;99.90
8832;DHT22;4452;50.756;4.472;2022-09-12T08:28:51;18.60;99.90
8832;DHT22;4452;50.756;4.472;2022-09-12T08:31:20;18.50;99.90
8832;DHT22;4452;50.756;4.472;2022-09-12T08:33:46;18.70;99.90
8832;DHT22;4452;50.756;4.472;2022-09-12T08:38:46;18.80;99.90
8832;DHT22;4452;50.756;4.472;2022-09-12T08:55:04;19.10;99.90
8832;DHT22;4452;50.756;4.472;2022-09-12T08:57:31;19.20;99.90
8832;DHT22;4452;50.756;4.472;2022-09-12T08:59:58;19.40;99.90
8832;DHT22;4452;50.756;4.472;2022-09-12T09:05:16;19.80;99.90
8832;DHT22;4452;50.756;4.472;2022-09-12T09:16:32;20.10;99.90
8832;DHT22;4452;50.756;4.472;2022-09-12T09:24:25;20.40;99.90
8832;DHT22;4452;50.756;4.472;2022-09-12T09:29:34;20.70;99.90
8832;DHT22;4452;50.756;4.472;2022-09-12T09:32:04;20.80;99.90
8832;DHT22;4452;50.756;4.472;2022-09-12T09:34:38;20.90;99.90
8832;DHT22;4452;50.756;4.472;2022-09-12T09:37:23;20.60;99.90
8832;DHT22;4452;50.756;4.472;2022-09-12T09:45:20;20.80;99.90
8832;DHT22;4452;50.756;4.472;2022-09-12T09:47:56;21.10;99.90
8832;DHT22;4452;50.756;4.472;2022-09-12T09:50:23;20.80;99.90
8832;DHT22;4452;50.756;4.472;2022-09-12T09:52:50;20.90;99.90
8832;DHT22;4452;50.756;4.472;2022-09-12T09:55:24;21.40;99.90
8832;DHT22;4452;50.756;4.472;2022-09-12T09:57:52;21.40;99.90
8832;DHT22;4452;50.756;4.472;2022-09-12T10:00:26;21.50;99.90
8832;DHT22;4452;50.756;4.472;2022-09-12T10:08:25;21.90;99.90
8832;DHT22;4452;50.756;4.472;2022-09-12T10:13:55;21.90;99.90
8832;DHT22;4452;50.756;4.472;2022-09-12T10:16:29;22.10;99.90
8832;DHT22;4452;50.756;4.472;2022-09-12T10:18:57;22.10;99.90
8832;DHT22;4452;50.756;4.472;2022-09-12T10:21:35;22.20;99.90
8832;DHT22;4452;50.756;4.472;2022-09-12T10:24:05;22.20;99.90
8832;DHT22;4452;50.756;4.472;2022-09-12T10:26:39;22.20;99.90
8832;DHT22;4452;50.756;4.472;2022-09-12T10:29:15;22.10;99.90
8832;DHT22;4452;50.756;4.472;2022-09-12T10:31:48;22.10;99.90
8832;DHT22;4452;50.756;4.472;2022-09-12T10:34:42;22.20;99.90
8832;DHT22;4452;50.756;4.472;2022-09-12T10:37:24;22.50;99.90
8832;DHT22;4452;50.756;4.472;2022-09-12T10:39:55;22.50;99.90
8832;DHT22;4452;50.756;4.472;2022-09-12T10:45:20;22.20;99.90
8832;DHT22;4452;50.756;4.472;2022-09-12T10:47:48;22.60;99.90
8832;DHT22;4452;50.756;4.472;2022-09-12T10:50:19;22.90;99.90
8832;DHT22;4452;50.756;4.472;2022-09-12T10:52:45;23.10;99.90
8832;DHT22;4452;50.756;4.472;2022-09-12T10:55:15;22.80;99.90
8832;DHT22;4452;50.756;4.472;2022-09-12T10:57:58;22.90;99.90
8832;DHT22;4452;50.756;4.472;2022-09-12T11:00:28;22.90;99.90
8832;DHT22;4452;50.756;4.472;2022-09-12T11:03:27;22.70;99.90
8832;DHT22;4452;50.756;4.472;2022-09-12T11:05:57;23.20;99.90
8832;DHT22;4452;50.756;4.472;2022-09-12T11:08:52;22.80;99.90
8832;DHT22;4452;50.756;4.472;2022-09-12T11:11:49;23.30;99.90
8832;DHT22;4452;50.756;4.472;2022-09-12T11:14:37;23.40;99.90
8832;DHT22;4452;50.756;4.472;2022-09-12T11:17:49;23.50;99.90
8832;DHT22;4452;50.756;4.472;2022-09-12T11:26:03;23.80;99.90
8832;DHT22;4452;50.756;4.472;2022-09-12T11:33:49;23.80;99.90
8832;DHT22;4452;50.756;4.472;2022-09-12T11:36:45;24.20;99.90
8832;DHT22;4452;50.756;4.472;2022-09-12T11:39:25;24.50;99.90
8832;DHT22;4452;50.756;4.472;2022-09-12T11:41:57;24.00;99.90
8832;DHT22;4452;50.756;4.472;2022-09-12T11:44:36;24.20;99.90
8832;DHT22;4452;50.756;4.472;2022-09-12T11:47:09;24.40;99.90
8832;DHT22;4452;50.756;4.472;2022-09-12T11:49:42;24.10;99.90
8832;DHT22;4452;50.756;4.472;2022-09-12T11:55:02;24.30;99.90
8832;DHT22;4452;50.756;4.472;2022-09-12T11:57:57;24.30;99.90
8832;DHT22;4452;50.756;4.472;2022-09-12T12:00:41;24.30;99.90
8832;DHT22;4452;50.756;4.472;2022-09-12T12:06:01;24.80;99.90
8832;DHT22;4452;50.756;4.472;2022-09-12T12:08:30;24.60;99.90
8832;DHT22;4452;50.756;4.472;2022-09-12T12:10:59;24.40;99.90
8832;DHT22;4452;50.756;4.472;2022-09-12T12:14:12;24.10;99.90
8832;DHT22;4452;50.756;4.472;2022-09-12T12:16:25;24.20;99.90
8832;DHT22;4452;50.756;4.472;2022-09-12T12:18:57;24.40;99.90
8832;DHT22;4452;50.756;4.472;2022-09-12T12:27:01;25.60;99.90
8832;DHT22;4452;50.756;4.472;2022-09-12T12:29:38;25.50;99.90
8832;DHT22;4452;50.756;4.472;2022-09-12T12:34:37;25.70;99.90
8832;DHT22;4452;50.756;4.472;2022-09-12T12:44:57;25.40;99.90
8832;DHT22;4452;50.756;4.472;2022-09-12T12:47:31;25.70;99.90
8832;DHT22;4452;50.756;4.472;2022-09-12T12:50:07;25.20;99.90
8832;DHT22;4452;50.756;4.472;2022-09-12T12:55:29;25.10;99.90
8832;DHT22;4452;50.756;4.472;2022-09-12T12:57:57;25.30;99.90
8832;DHT22;4452;50.756;4.472;2022-09-12T13:08:09;26.00;99.90
8832;DHT22;4452;50.756;4.472;2022-09-12T13:10:36;26.20;99.90
8832;DHT22;4452;50.756;4.472;2022-09-12T13:13:05;26.90;99.90
8832;DHT22;4452;50.756;4.472;2022-09-12T13:18:06;27.10;99.90
8832;DHT22;4452;50.756;4.472;2022-09-12T13:20:58;26.40;99.90
8832;DHT22;4452;50.756;4.472;2022-09-12T13:23:27;26.70;99.90
8832;DHT22;4452;50.756;4.472;2022-09-12T13:25:55;26.70;99.90
8832;DHT22;4452;50.756;4.472;2022-09-12T13:28:22;26.20;99.90
8832;DHT22;4452;50.756;4.472;2022-09-12T13:31:28;26.40;99.90
8832;DHT22;4452;50.756;4.472;2022-09-12T13:33:51;26.20;99.90
8832;DHT22;4452;50.756;4.472;2022-09-12T13:45:04;27.50;99.90
8832;DHT22;4452;50.756;4.472;2022-09-12T13:47:35;27.30;99.90
8832;DHT22;4452;50.756;4.472;2022-09-12T13:50:02;27.10;99.90
8832;DHT22;4452;50.756;4.472;2022-09-12T13:52:31;27.30;99.90
8832;DHT22;4452;50.756;4.472;2022-09-12T13:54:58;27.90;99.90
8832;DHT22;4452;50.756;4.472;2022-09-12T14:00:12;27.90;99.90
8832;DHT22;4452;50.756;4.472;2022-09-12T14:02:44;27.40;99.90
8832;DHT22;4452;50.756;4.472;2022-09-12T14:05:19;27.40;99.90
8832;DHT22;4452;50.756;4.472;2022-09-12T14:07:53;27.30;99.90
8832;DHT22;4452;50.756;4.472;2022-09-12T14:12:54;28.20;99.90
8832;DHT22;4452;50.756;4.472;2022-09-12T14:15:23;28.90;99.90
8832;DHT22;4452;50.756;4.472;2022-09-12T14:17:54;29.30;99.90
8832;DHT22;4452;50.756;4.472;2022-09-12T14:20:21;29.00;99.90
8832;DHT22;4452;50.756;4.472;2022-09-12T14:22:49;28.50;99.90
8832;DHT22;4452;50.756;4.472;2022-09-12T14:25:20;28.30;99.90
8832;DHT22;4452;50.756;4.472;2022-09-12T14:27:53;28.70;99.90
8832;DHT22;4452;50.756;4.472;2022-09-12T14:35:28;29.60;99.90
8832;DHT22;4452;50.756;4.472;2022-09-12T14:37:54;30.00;99.90
8832;DHT22;4452;50.756;4.472;2022-09-12T14:40:22;29.20;99.90
8832;DHT22;4452;50.756;4.472;2022-09-12T14:42:51;29.10;99.90
8832;DHT22;4452;50.756;4.472;2022-09-12T14:45:35;28.70;99.90
8832;DHT22;4452;50.756;4.472;2022-09-12T14:48:01;29.60;99.90
8832;DHT22;4452;50.756;4.472;2022-09-12T14:50:28;30.40;99.90
8832;DHT22;4452;50.756;4.472;2022-09-12T14:53:21;29.00;99.90
8832;DHT22;4452;50.756;4.472;2022-09-12T14:55:56;29.00;99.90
8832;DHT22;4452;50.756;4.472;2022-09-12T14:58:24;28.40;99.90
8832;DHT22;4452;50.756;4.472;2022-09-12T15:06:03;28.70;99.90
8832;DHT22;4452;50.756;4.472;2022-09-12T15:08:30;29.30;99.90
8832;DHT22;4452;50.756;4.472;2022-09-12T15:10:57;28.90;99.90
8832;DHT22;4452;50.756;4.472;2022-09-12T15:13:25;29.30;99.90
8832;DHT22;4452;50.756;4.472;2022-09-12T15:15:56;29.70;99.90
8832;DHT22;4452;50.756;4.472;2022-09-12T15:18:24;28.90;99.90
8832;DHT22;4452;50.756;4.472;2022-09-12T15:21:02;28.70;99.90
8832;DHT22;4452;50.756;4.472;2022-09-12T15:26:01;30.40;99.90
8832;DHT22;4452;50.756;4.472;2022-09-12T15:28:29;30.10;99.90
8832;DHT22;4452;50.756;4.472;2022-09-12T15:30:56;30.40;99.90
8832;DHT22;4452;50.756;4.472;2022-09-12T15:33:23;31.00;99.90
8832;DHT22;4452;50.756;4.472;2022-09-12T15:35:50;29.60;99.90
8832;DHT22;4452;50.756;4.472;2022-09-12T15:38:17;30.60;99.90
8832;DHT22;4452;50.756;4.472;2022-09-12T15:40:43;31.20;99.90
8832;DHT22;4452;50.756;4.472;2022-09-12T15:43:12;30.90;99.90
8832;DHT22;4452;50.756;4.472;2022-09-12T15:45:40;31.40;99.90
8832;DHT22;4452;50.756;4.472;2022-09-12T15:48:06;31.90;99.90
8832;DHT22;4452;50.756;4.472;2022-09-12T15:50:32;30.30;99.50
8832;DHT22;4452;50.756;4.472;2022-09-12T15:52:58;30.20;99.90
8832;DHT22;4452;50.756;4.472;2022-09-12T15:55:27;30.30;99.90
8832;DHT22;4452;50.756;4.472;2022-09-12T15:57:54;30.70;99.90
8832;DHT22;4452;50.756;4.472;2022-09-12T16:00:20;30.40;99.90
8832;DHT22;4452;50.756;4.472;2022-09-12T16:02:48;29.60;99.90
8832;DHT22;4452;50.756;4.472;2022-09-12T16:05:20;29.50;99.90
8832;DHT22;4452;50.756;4.472;2022-09-12T16:07:46;29.60;99.90
8832;DHT22;4452;50.756;4.472;2022-09-12T16:10:17;30.30;99.90
8832;DHT22;4452;50.756;4.472;2022-09-12T16:12:43;30.30;99.90
8832;DHT22;4452;50.756;4.472;2022-09-12T16:15:16;29.20;99.90
8832;DHT22;4452;50.756;4.472;2022-09-12T16:17:42;29.60;99.90
8832;DHT22;4452;50.756;4.472;2022-09-12T16:20:09;29.50;99.90
8832;DHT22;4452;50.756;4.472;2022-09-12T16:22:34;28.10;99.90
8832;DHT22;4452;50.756;4.472;2022-09-12T16:25:00;27.40;99.90
8832;DHT22;4452;50.756;4.472;2022-09-12T16:27:26;27.00;99.90
8832;DHT22;4452;50.756;4.472;2022-09-12T16:29:51;27.10;99.90
8832;DHT22;4452;50.756;4.472;2022-09-12T16:32:17;26.90;99.90
8832;DHT22;4452;50.756;4.472;2022-09-12T16:34:43;27.40;99.90
8832;DHT22;4452;50.756;4.472;2022-09-12T16:37:08;27.80;99.90
8832;DHT22;4452;50.756;4.472;2022-09-12T16:39:35;28.10;99.90
8832;DHT22;4452;50.756;4.472;2022-09-12T16:42:00;28.20;99.90
8832;DHT22;4452;50.756;4.472;2022-09-12T16:44:26;28.30;99.90
8832;DHT22;4452;50.756;4.472;2022-09-12T16:46:52;28.90;99.90
8832;DHT22;4452;50.756;4.472;2022-09-12T16:49:18;29.40;99.90
8832;DHT22;4452;50.756;4.472;2022-09-12T16:51:43;29.90;99.90
8832;DHT22;4452;50.756;4.472;2022-09-12T16:54:13;30.30;99.90
8832;DHT22;4452;50.756;4.472;2022-09-12T16:56:39;30.10;99.90
8832;DHT22;4452;50.756;4.472;2022-09-12T16:59:05;30.10;99.90
8832;DHT22;4452;50.756;4.472;2022-09-12T17:01:31;29.90;99.90
8832;DHT22;4452;50.756;4.472;2022-09-12T17:03:59;30.00;99.90
8832;DHT22;4452;50.756;4.472;2022-09-12T17:06:26;30.50;99.90
8832;DHT22;4452;50.756;4.472;2022-09-12T17:08:53;30.60;99.90
8832;DHT22;4452;50.756;4.472;2022-09-12T17:11:21;30.50;99.90
8832;DHT22;4452;50.756;4.472;2022-09-12T17:13:48;29.70;99.90
8832;DHT22;4452;50.756;4.472;2022-09-12T17:16:15;29.40;99.90
8832;DHT22;4452;50.756;4.472;2022-09-12T17:18:41;28.60;99.90
8832;DHT22;4452;50.756;4.472;2022-09-12T17:21:08;27.90;99.90
8832;DHT22;4452;50.756;4.472;2022-09-12T17:23:33;27.30;99.90
8832;DHT22;4452;50.756;4.472;2022-09-12T17:25:59;27.00;99.90
8832;DHT22;4452;50.756;4.472;2022-09-12T17:28:25;26.90;99.90
8832;DHT22;4452;50.756;4.472;2022-09-12T17:31:00;26.80;99.90
8832;DHT22;4452;50.756;4.472;2022-09-12T17:33:26;26.70;99.90
8832;DHT22;4452;50.756;4.472;2022-09-12T17:35:52;26.70;99.90
8832;DHT22;4452;50.756;4.472;2022-09-12T17:38:18;26.50;99.90
8832;DHT22;4452;50.756;4.472;2022-09-12T17:40:45;26.10;99.90
8832;DHT22;4452;50.756;4.472;2022-09-12T17:43:12;25.60;99.90
8832;DHT22;4452;50.756;4.472;2022-09-12T17:45:39;24.90;99.90
8832;DHT22;4452;50.756;4.472;2022-09-12T17:48:05;24.60;99.90
8832;DHT22;4452;50.756;4.472;2022-09-12T17:50:38;24.10;99.90
8832;DHT22;4452;50.756;4.472;2022-09-12T17:53:08;24.30;99.90
8832;DHT22;4452;50.756;4.472;2022-09-12T17:55:35;24.40;99.90
8832;DHT22;4452;50.756;4.472;2022-09-12T17:58:00;24.30;99.90
8832;DHT22;4452;50.756;4.472;2022-09-12T18:00:28;24.10;99.90
8832;DHT22;4452;50.756;4.472;2022-09-12T18:03:13;24.10;99.90
8832;DHT22;4452;50.756;4.472;2022-09-12T18:05:51;23.90;99.90
8832;DHT22;4452;50.756;4.472;2022-09-12T18:08:18;23.50;99.90
8832;DHT22;4452;50.756;4.472;2022-09-12T18:10:44;23.40;99.90
8832;DHT22;4452;50.756;4.472;2022-09-12T18:13:11;23.30;99.90
8832;DHT22;4452;50.756;4.472;2022-09-12T18:15:36;23.20;99.90
8832;DHT22;4452;50.756;4.472;2022-09-12T18:18:03;23.10;99.90
8832;DHT22;4452;50.756;4.472;2022-09-12T18:20:30;23.10;99.90
8832;DHT22;4452;50.756;4.472;2022-09-12T18:22:55;23.00;99.90
8832;DHT22;4452;50.756;4.472;2022-09-12T18:25:21;22.60;99.90
8832;DHT22;4452;50.756;4.472;2022-09-12T18:27:47;22.50;99.90
8832;DHT22;4452;50.756;4.472;2022-09-12T18:30:13;22.60;99.90
8832;DHT22;4452;50.756;4.472;2022-09-12T18:32:39;22.60;99.90
8832;DHT22;4452;50.756;4.472;2022-09-12T18:35:06;22.60;99.90
8832;DHT22;4452;50.756;4.472;2022-09-12T18:37:32;22.50;99.90
8832;DHT22;4452;50.756;4.472;2022-09-12T18:39:57;22.50;99.90
8832;DHT22;4452;50.756;4.472;2022-09-12T18:42:26;22.50;99.90
8832;DHT22;4452;50.756;4.472;2022-09-12T18:44:52;22.50;99.90
8832;DHT22;4452;50.756;4.472;2022-09-12T18:47:17;22.50;99.90
8832;DHT22;4452;50.756;4.472;2022-09-12T18:49:43;22.40;99.90
8832;DHT22;4452;50.756;4.472;2022-09-12T18:52:08;22.00;99.90
8832;DHT22;4452;50.756;4.472;2022-09-12T18:54:34;21.80;99.90
8832;DHT22;4452;50.756;4.472;2022-09-12T18:57:00;21.60;99.90
8832;DHT22;4452;50.756;4.472;2022-09-12T18:59:26;21.50;99.90
8832;DHT22;4452;50.756;4.472;2022-09-12T19:01:52;21.50;99.90
8832;DHT22;4452;50.756;4.472;2022-09-12T19:04:18;21.60;99.90
8832;DHT22;4452;50.756;4.472;2022-09-12T19:06:45;21.60;99.90